Time;durP1;ratioP1;P1;durP2;ratioP2;P2;SDS_P1;SDS_P2;PMS_P1;PMS_P2;Temp;Humidity;BMP_temperature;BMP_pressure;BME280_temperature;BME280_humidity;BME280_pressure;Samples;Min_cycle;Max_cycle;Signal;HPM_P1;HPM_P2
2022/11/02 00:01:22;;;;;;;11.70;1.92;;;12.50;99.90;;;;;;5079308;28;20044;-70
2022/11/02 00:03:48;;;;;;;8.68;1.58;;;12.50;99.90;;;;;;5070762;28;20491;-70
2022/11/02 00:06:13;;;;;;;6.32;1.42;;;12.50;99.90;;;;;;5073528;28;20056;-71
2022/11/02 00:08:39;;;;;;;13.60;2.33;;;12.50;99.90;;;;;;5069186;28;20052;-73
2022/11/02 00:11:05;;;;;;;9.82;1.88;;;12.50;99.90;;;;;;5073944;28;20046;-71
2022/11/02 00:13:31;;;;;;;8.88;1.45;;;12.50;99.90;;;;;;5071632;28;20631;-70
2022/11/02 00:16:07;;;;;;;13.98;2.03;;;12.40;99.90;;;;;;5090787;28;20044;-71
2022/11/02 00:18:34;;;;;;;15.73;2.30;;;12.40;99.90;;;;;;5087002;28;20047;-71
2022/11/02 00:21:01;;;;;;;10.00;2.00;;;12.40;99.90;;;;;;5090161;28;20052;-71
2022/11/02 00:23:27;;;;;;;7.18;1.58;;;12.40;99.90;;;;;;5088485;28;20055;-70
2022/11/02 00:25:54;;;;;;;10.65;2.25;;;12.40;99.90;;;;;;5088792;28;20482;-71
2022/11/02 00:28:20;;;;;;;7.25;1.85;;;12.40;99.90;;;;;;5087667;28;20135;-71
2022/11/02 00:30:46;;;;;;;10.20;1.80;;;12.40;99.90;;;;;;5069249;28;20036;-71
2022/11/02 00:33:12;;;;;;;12.02;2.30;;;12.40;99.90;;;;;;5087385;28;20035;-71
2022/11/02 00:35:39;;;;;;;9.43;2.33;;;12.40;99.90;;;;;;5088693;28;20052;-71
2022/11/02 00:38:04;;;;;;;8.32;1.55;;;12.40;99.90;;;;;;5088442;28;20048;-71
2022/11/02 00:40:30;;;;;;;15.48;2.17;;;12.40;99.90;;;;;;5089151;28;20046;-71
2022/11/02 00:42:56;;;;;;;10.23;1.85;;;12.40;99.90;;;;;;5088277;28;20079;-75
2022/11/02 00:45:22;;;;;;;6.05;1.63;;;12.30;99.90;;;;;;5067476;28;20783;-71
2022/11/02 00:47:48;;;;;;;10.18;1.77;;;12.40;99.90;;;;;;5081917;28;20109;-71
2022/11/02 00:50:14;;;;;;;8.07;1.73;;;12.40;99.90;;;;;;5088490;28;20032;-72
2022/11/02 00:52:41;;;;;;;7.75;1.90;;;12.30;99.90;;;;;;5087656;28;20507;-77
2022/11/02 00:55:08;;;;;;;9.00;1.48;;;12.30;99.90;;;;;;5089276;28;20079;-70
2022/11/02 00:57:34;;;;;;;14.52;2.03;;;12.40;99.90;;;;;;5068908;28;20048;-71
2022/11/02 01:00:00;;;;;;;7.25;1.60;;;12.40;99.90;;;;;;5088399;28;20488;-72
2022/11/02 01:02:26;;;;;;;17.35;1.52;;;12.30;99.90;;;;;;5076380;28;20428;-72
2022/11/02 01:04:52;;;;;;;8.23;1.70;;;12.20;99.90;;;;;;5071283;28;20516;-73
2022/11/02 01:07:17;;;;;;;7.15;1.55;;;12.10;99.90;;;;;;5073586;28;20040;-82
2022/11/02 01:09:43;;;;;;;5.63;1.05;;;12.00;99.90;;;;;;5070464;28;20048;-75
2022/11/02 01:12:09;;;;;;;4.80;1.02;;;11.90;99.90;;;;;;5088895;28;20032;-74
2022/11/02 01:14:35;;;;;;;2.10;0.80;;;11.80;99.90;;;;;;5065908;28;20605;-72
2022/11/02 01:17:01;;;;;;;7.00;1.15;;;11.70;99.90;;;;;;5086881;28;20090;-72
2022/11/02 01:19:26;;;;;;;4.93;1.23;;;11.60;99.90;;;;;;5071384;28;20064;-73
2022/11/02 01:21:52;;;;;;;2.20;0.80;;;11.50;99.90;;;;;;5087613;28;20044;-72
2022/11/02 01:24:18;;;;;;;0.80;0.55;;;11.50;99.90;;;;;;5070204;28;20044;-73
2022/11/02 01:26:44;;;;;;;1.15;0.40;;;11.40;99.90;;;;;;5088377;28;20032;-72
2022/11/02 01:29:10;;;;;;;1.45;0.60;;;11.30;99.90;;;;;;5087180;28;20066;-72
2022/11/02 01:31:35;;;;;;;2.95;0.60;;;11.30;99.90;;;;;;5086628;28;20097;-72
2022/11/02 01:34:01;;;;;;;3.65;0.63;;;11.20;99.90;;;;;;5088317;28;20091;-72
2022/11/02 01:36:27;;;;;;;1.25;0.50;;;11.20;99.90;;;;;;5068748;28;20052;-75
2022/11/02 01:38:54;;;;;;;1.50;0.50;;;11.10;99.90;;;;;;5070945;28;20123;-73
2022/11/02 01:41:20;;;;;;;2.13;0.60;;;11.10;99.90;;;;;;5069798;28;20101;-72
2022/11/02 01:43:48;;;;;;;1.33;0.43;;;11.10;99.90;;;;;;5071043;28;20043;-72
2022/11/02 01:46:18;;;;;;;1.60;0.50;;;11.00;99.90;;;;;;5082515;28;20044;-72
2022/11/02 01:49:00;;;;;;;2.83;0.45;;;11.00;99.90;;;;;;5083920;28;20040;-72
2022/11/02 01:51:37;;;;;;;4.60;0.73;;;10.90;99.90;;;;;;5086745;28;20121;-73
2022/11/02 01:54:14;;;;;;;0.93;0.55;;;10.90;99.90;;;;;;5086757;28;20080;-73
2022/11/02 01:56:44;;;;;;;0.77;0.52;;;10.90;99.90;;;;;;5087976;28;20056;-73
2022/11/02 01:59:18;;;;;;;4.10;0.57;;;10.90;99.90;;;;;;5085596;28;20060;-84
2022/11/02 02:01:44;;;;;;;2.15;0.65;;;10.90;99.90;;;;;;5090089;28;20491;-72
2022/11/02 02:04:11;;;;;;;1.25;0.45;;;10.90;99.90;;;;;;5087729;28;20097;-72
2022/11/02 02:06:39;;;;;;;3.03;0.60;;;10.80;99.90;;;;;;5085390;28;20069;-72
2022/11/02 02:09:06;;;;;;;1.70;0.38;;;10.80;99.90;;;;;;5086225;28;20097;-72
2022/11/02 02:11:37;;;;;;;0.90;0.63;;;10.70;99.90;;;;;;5073713;28;20494;-72
2022/11/02 02:14:14;;;;;;;1.70;0.40;;;10.70;99.90;;;;;;5066529;28;20049;-83
2022/11/02 02:16:55;;;;;;;1.85;0.50;;;10.60;99.90;;;;;;5091883;28;20082;-72
2022/11/02 02:19:55;;;;;;;0.98;0.30;;;10.60;99.90;;;;;;5084684;28;20044;-72
2022/11/02 02:22:46;;;;;;;0.80;0.50;;;10.60;99.90;;;;;;5086586;28;20052;-73
2022/11/02 02:25:49;;;;;;;1.65;0.60;;;10.60;99.90;;;;;;5087965;28;20047;-73
2022/11/02 02:28:36;;;;;;;6.22;0.60;;;10.60;99.90;;;;;;5097848;28;20062;-73
2022/11/02 02:31:08;;;;;;;6.38;0.77;;;10.50;99.90;;;;;;5085333;28;20040;-73
2022/11/02 02:33:33;;;;;;;3.40;1.05;;;10.50;99.90;;;;;;5077265;28;20063;-72
2022/11/02 02:36:06;;;;;;;2.33;0.75;;;10.50;99.90;;;;;;5087745;28;20047;-72
2022/11/02 02:39:02;;;;;;;4.07;0.77;;;10.50;99.90;;;;;;5086256;28;20048;-73
2022/11/02 02:41:42;;;;;;;5.82;1.23;;;10.50;99.90;;;;;;5057383;28;20052;-72
2022/11/02 02:44:13;;;;;;;;;;;10.50;99.90;;;;;;5087977;28;20044;-72
2022/11/02 02:46:56;;;;;;;7.68;1.58;;;10.60;99.90;;;;;;5084489;28;20184;-72
2022/11/02 02:49:35;;;;;;;12.23;1.58;;;10.60;99.90;;;;;;5085916;28;20087;-72
2022/11/02 02:52:02;;;;;;;5.22;1.20;;;10.70;99.90;;;;;;5085407;28;20101;-72
2022/11/02 02:54:36;;;;;;;8.18;1.80;;;10.70;99.90;;;;;;5082436;28;20510;-73
2022/11/02 02:57:07;;;;;;;6.45;1.52;;;10.80;99.90;;;;;;5086265;28;20401;-72
2022/11/02 02:59:51;;;;;;;9.07;2.15;;;10.90;99.90;;;;;;5084525;28;20056;-73
2022/11/02 03:02:31;;;;;;;13.63;2.08;;;10.90;99.90;;;;;;5085315;28;20054;-72
2022/11/02 03:04:57;;;;;;;;;;;10.90;99.90;;;;;;5093948;28;20401;-78
2022/11/02 03:07:27;;;;;;;5.68;1.48;;;10.90;99.90;;;;;;5093192;28;19930;-73
2022/11/02 03:10:18;;;;;;;6.75;1.85;;;11.00;99.90;;;;;;5082057;28;20483;-72
2022/11/02 03:13:29;;;;;;;12.70;1.98;;;11.00;99.90;;;;;;5081620;28;20043;-73
2022/11/02 03:15:59;;;;;;;;;;;10.90;99.90;;;;;;5030069;28;20063;-72
2022/11/02 03:18:32;;;;;;;;;;;10.90;99.90;;;;;;5075595;28;19920;-72
2022/11/02 03:21:24;;;;;;;11.52;2.53;;;11.00;99.90;;;;;;5083352;28;20335;-72
2022/11/02 03:24:11;;;;;;;10.50;1.90;;;11.00;99.90;;;;;;5084931;28;20055;-72
2022/11/02 03:26:39;;;;;;;6.25;1.30;;;11.00;99.90;;;;;;5090056;28;20489;-72
2022/11/02 03:29:08;;;;;;;9.95;1.30;;;11.00;99.90;;;;;;5083962;28;20083;-73
2022/11/02 03:32:01;;;;;;;8.73;1.85;;;11.00;99.90;;;;;;5084376;28;20044;-72
2022/11/02 03:34:27;;;;;;;7.53;1.55;;;11.00;99.90;;;;;;5085158;28;20091;-72
2022/11/02 03:37:02;;;;;;;8.10;1.35;;;11.00;99.90;;;;;;5085470;28;20090;-73
2022/11/02 03:39:49;;;;;;;8.65;1.17;;;11.10;99.90;;;;;;5066702;28;20060;-72
2022/11/02 03:42:21;;;;;;;4.60;0.90;;;11.00;99.90;;;;;;5085803;28;20618;-72
2022/11/02 03:44:54;;;;;;;4.78;1.30;;;11.00;99.90;;;;;;5094165;28;20040;-73
2022/11/02 03:47:21;;;;;;;2.97;0.98;;;11.00;99.90;;;;;;5083181;28;20052;-72
2022/11/02 03:49:49;;;;;;;9.07;1.65;;;11.00;99.90;;;;;;5085064;28;20052;-72
2022/11/02 03:52:21;;;;;;;4.53;0.85;;;11.00;99.90;;;;;;5084300;28;20044;-72
2022/11/02 03:55:04;;;;;;;8.65;1.15;;;11.00;99.90;;;;;;5085202;28;20048;-73
2022/11/02 03:57:48;;;;;;;5.97;1.00;;;11.00;99.90;;;;;;5085377;28;20417;-80
2022/11/02 04:00:23;;;;;;;5.68;1.15;;;11.00;99.90;;;;;;5083393;28;20039;-72
2022/11/02 04:02:52;;;;;;;5.13;1.10;;;10.90;99.90;;;;;;5085826;28;20421;-72
2022/11/02 04:05:19;;;;;;;4.60;1.02;;;10.90;99.90;;;;;;5084554;28;20039;-87
2022/11/02 04:10:33;;;;;;;6.80;0.90;;;10.90;99.90;;;;;;5070657;28;20057;-72
2022/11/02 04:15:44;;;;;;;9.70;1.60;;;10.90;99.90;;;;;;5071703;28;20482;-73
2022/11/02 04:20:53;;;;;;;4.85;1.05;;;10.90;99.90;;;;;;5083352;28;20040;-72
2022/11/02 04:26:04;;;;;;;10.27;1.38;;;10.90;99.90;;;;;;5080357;28;20055;-74
2022/11/02 04:28:30;;;;;;;8.02;0.88;;;10.90;99.90;;;;;;5073759;28;20130;-72
2022/11/02 04:30:59;;;;;;;9.32;1.40;;;10.90;99.90;;;;;;5084412;28;20131;-72
2022/11/02 04:33:31;;;;;;;9.60;1.85;;;10.80;99.90;;;;;;5084468;28;20044;-72
2022/11/02 04:36:01;;;;;;;6.18;1.00;;;10.80;99.90;;;;;;5085520;28;20085;-71
2022/11/02 04:38:40;;;;;;;8.43;1.10;;;10.80;99.90;;;;;;5074397;28;20051;-72
2022/11/02 04:44:02;;;;;;;9.85;1.77;;;10.80;99.90;;;;;;5076245;28;20044;-72
2022/11/02 04:46:31;;;;;;;5.68;0.90;;;10.80;99.90;;;;;;5089193;28;20401;-72
2022/11/02 04:48:56;;;;;;;5.07;1.35;;;10.80;99.90;;;;;;5087119;28;20047;-72
2022/11/02 04:51:24;;;;;;;8.30;1.30;;;10.90;99.90;;;;;;5086688;28;20044;-71
2022/11/02 04:53:52;;;;;;;15.13;2.25;;;10.90;99.90;;;;;;5088182;28;20048;-71
2022/11/02 04:56:17;;;;;;;5.53;1.10;;;11.00;99.90;;;;;;5049657;28;20128;-73
2022/11/02 04:58:47;;;;;;;4.75;1.10;;;11.00;99.90;;;;;;5087544;28;20142;-72
2022/11/02 05:01:14;;;;;;;6.10;1.37;;;11.00;99.90;;;;;;5083379;28;20075;-86
2022/11/02 05:03:40;;;;;;;6.20;1.30;;;11.00;99.90;;;;;;5101771;28;20684;-72
2022/11/02 05:06:08;;;;;;;8.50;1.40;;;11.00;99.90;;;;;;5076946;28;20044;-72
2022/11/02 05:08:35;;;;;;;6.03;1.30;;;11.00;99.90;;;;;;5097698;28;20043;-84
2022/11/02 05:11:01;;;;;;;6.85;1.20;;;11.00;99.90;;;;;;5073701;28;20044;-72
2022/11/02 05:13:27;;;;;;;10.02;1.92;;;11.00;99.90;;;;;;5086127;28;20584;-88
2022/11/02 05:15:57;;;;;;;5.57;1.98;;;11.10;99.90;;;;;;5070789;28;20055;-72
2022/11/02 05:18:23;;;;;;;;;;;11.10;99.90;;;;;;5093628;28;20439;-73
2022/11/02 05:20:56;;;;;;;5.82;1.70;;;11.10;99.90;;;;;;5093105;28;19924;-72
2022/11/02 05:23:23;;;;;;;4.47;1.00;;;11.00;99.90;;;;;;5087284;28;20067;-72
2022/11/02 05:26:00;;;;;;;5.32;1.33;;;11.00;99.90;;;;;;5069887;28;20375;-72
2022/11/02 05:28:26;;;;;;;8.05;1.48;;;11.00;99.90;;;;;;5090922;28;20114;-71
2022/11/02 05:30:52;;;;;;;7.10;1.30;;;11.00;99.90;;;;;;5098789;28;20508;-71
2022/11/02 05:33:18;;;;;;;5.93;1.65;;;11.00;99.90;;;;;;5087113;28;20201;-72
2022/11/02 05:35:45;;;;;;;9.82;1.33;;;11.00;99.90;;;;;;5083034;28;20433;-72
2022/11/02 05:38:11;;;;;;;4.97;1.48;;;11.10;99.90;;;;;;5085314;28;20040;-72
2022/11/02 05:40:39;;;;;;;5.25;1.23;;;11.00;99.90;;;;;;5087922;28;20501;-72
2022/11/02 05:43:06;;;;;;;7.80;1.13;;;11.10;99.90;;;;;;5068433;28;20131;-72
2022/11/02 05:45:32;;;;;;;6.53;1.25;;;11.00;99.90;;;;;;5088317;28;20044;-72
2022/11/02 05:48:02;;;;;;;10.30;1.67;;;11.00;99.90;;;;;;5085086;28;20104;-72
2022/11/02 05:50:28;;;;;;;7.72;1.38;;;11.00;99.90;;;;;;5087760;28;20104;-85
2022/11/02 05:52:54;;;;;;;8.07;1.40;;;11.00;99.90;;;;;;5087392;28;20047;-72
2022/11/02 05:55:20;;;;;;;6.03;1.55;;;11.00;99.90;;;;;;5088129;28;20032;-72
2022/11/02 05:57:51;;;;;;;8.43;1.40;;;10.90;99.90;;;;;;5089802;28;20042;-72
2022/11/02 06:00:16;;;;;;;11.20;1.88;;;10.90;99.90;;;;;;5071934;28;20044;-73
2022/11/02 06:02:42;;;;;;;8.30;1.85;;;10.90;99.90;;;;;;5070026;28;20044;-72
2022/11/02 06:05:08;;;;;;;10.43;1.77;;;10.80;99.90;;;;;;5065554;28;20055;-72
2022/11/02 06:07:34;;;;;;;8.32;1.73;;;10.80;99.90;;;;;;5072827;28;20040;-72
2022/11/02 06:10:01;;;;;;;4.25;1.05;;;10.80;99.90;;;;;;5082299;28;20055;-71
2022/11/02 06:12:27;;;;;;;8.27;1.60;;;10.70;99.90;;;;;;5084434;28;20056;-71
2022/11/02 06:14:52;;;;;;;9.57;2.38;;;10.80;99.90;;;;;;5085558;28;20062;-73
2022/11/02 06:17:18;;;;;;;9.88;2.17;;;10.70;99.90;;;;;;5087748;28;20421;-71
2022/11/02 06:19:44;;;;;;;7.53;1.80;;;10.70;99.90;;;;;;5101161;28;20044;-71
2022/11/02 06:22:10;;;;;;;12.43;2.42;;;10.70;99.90;;;;;;5085237;28;20509;-71
2022/11/02 06:24:35;;;;;;;10.50;2.25;;;10.70;99.90;;;;;;5086583;28;20047;-72
2022/11/02 06:27:01;;;;;;;6.90;1.38;;;10.70;99.90;;;;;;5084685;28;20462;-72
2022/11/02 06:29:27;;;;;;;9.38;1.67;;;10.70;99.90;;;;;;5096662;28;20574;-72
2022/11/02 06:31:52;;;;;;;12.65;1.83;;;10.70;99.90;;;;;;5084354;28;20052;-72
2022/11/02 06:34:18;;;;;;;6.75;1.98;;;10.70;99.90;;;;;;5083512;28;20326;-72
2022/11/02 06:36:44;;;;;;;8.73;1.33;;;10.70;99.90;;;;;;5086772;28;20044;-72
2022/11/02 06:39:09;;;;;;;10.50;1.70;;;10.80;99.90;;;;;;5087260;28;20071;-76
2022/11/02 06:41:35;;;;;;;10.68;1.98;;;10.80;99.90;;;;;;5086299;28;20048;-71
2022/11/02 06:44:01;;;;;;;7.30;1.15;;;10.80;99.90;;;;;;5084892;28;20490;-71
2022/11/02 06:46:26;;;;;;;9.70;1.85;;;10.80;99.90;;;;;;5087609;28;20052;-72
2022/11/02 06:48:52;;;;;;;6.65;1.83;;;10.80;99.90;;;;;;5085208;28;20469;-72
2022/11/02 06:51:18;;;;;;;6.13;1.40;;;10.80;99.90;;;;;;5086289;28;20081;-71
2022/11/02 06:53:43;;;;;;;8.30;1.63;;;10.90;99.90;;;;;;5084708;28;20044;-72
2022/11/02 06:56:11;;;;;;;12.30;1.92;;;10.90;99.90;;;;;;5074800;28;20044;-72
2022/11/02 06:58:36;;;;;;;6.90;1.30;;;10.90;99.90;;;;;;5083813;28;20115;-72
2022/11/02 07:01:08;;;;;;;9.10;1.65;;;11.00;99.90;;;;;;5084712;28;20126;-72
2022/11/02 07:03:34;;;;;;;12.45;2.38;;;11.00;99.90;;;;;;5085758;28;20040;-71
2022/11/02 07:06:01;;;;;;;13.73;2.10;;;11.00;99.90;;;;;;5085817;28;20486;-72
2022/11/02 07:08:28;;;;;;;5.93;1.58;;;11.00;99.90;;;;;;5086088;28;20048;-75
2022/11/02 07:10:54;;;;;;;9.07;1.73;;;11.10;99.90;;;;;;5070366;28;20454;-71
2022/11/02 07:13:20;;;;;;;14.93;1.92;;;11.10;99.90;;;;;;5087537;28;20089;-73
2022/11/02 07:15:46;;;;;;;11.10;2.50;;;11.10;99.90;;;;;;5068322;28;20036;-72
2022/11/02 07:18:12;;;;;;;10.45;1.80;;;11.00;99.90;;;;;;5086039;28;20083;-71
2022/11/02 07:20:38;;;;;;;8.30;1.90;;;11.10;99.90;;;;;;5085201;28;20079;-72
2022/11/02 07:23:04;;;;;;;9.40;1.13;;;11.10;99.90;;;;;;5084111;28;20072;-72
2022/11/02 07:25:32;;;;;;;14.88;2.13;;;11.10;99.90;;;;;;5085927;28;20036;-74
2022/11/02 07:27:59;;;;;;;11.70;1.70;;;11.00;99.90;;;;;;5083363;28;20079;-72
2022/11/02 07:30:26;;;;;;;3.97;0.90;;;11.00;99.90;;;;;;5085340;28;20047;-72
2022/11/02 07:32:52;;;;;;;8.45;1.40;;;11.00;99.90;;;;;;5082850;28;20071;-72
2022/11/02 07:35:17;;;;;;;11.57;1.95;;;11.10;99.90;;;;;;5084705;28;20137;-73
2022/11/02 07:37:43;;;;;;;10.98;1.80;;;11.20;99.90;;;;;;5083711;28;20143;-71
2022/11/02 07:40:11;;;;;;;9.10;1.65;;;11.30;99.90;;;;;;5069349;28;20105;-71
2022/11/02 07:42:43;;;;;;;12.10;2.42;;;11.30;99.90;;;;;;5086117;28;20250;-71
2022/11/02 07:45:10;;;;;;;14.18;1.77;;;11.40;99.90;;;;;;5083421;28;20036;-72
2022/11/02 07:47:42;;;;;;;13.88;2.35;;;11.40;99.90;;;;;;5086969;28;20168;-71
2022/11/02 07:50:07;;;;;;;10.57;1.65;;;11.40;99.90;;;;;;5085009;28;20093;-72
2022/11/02 07:52:33;;;;;;;6.10;1.33;;;11.40;99.90;;;;;;5085294;28;20431;-72
2022/11/02 07:54:59;;;;;;;9.80;1.98;;;11.40;99.90;;;;;;5067262;28;20446;-72
2022/11/02 07:57:24;;;;;;;9.35;2.03;;;11.40;99.90;;;;;;5084400;28;20043;-73
2022/11/02 07:59:50;;;;;;;11.07;2.00;;;11.40;99.90;;;;;;5084473;28;20043;-74
2022/11/02 08:02:16;;;;;;;9.23;1.73;;;11.30;99.90;;;;;;5068500;28;20090;-72
2022/11/02 08:04:41;;;;;;;6.50;1.02;;;11.30;99.90;;;;;;5083542;28;20123;-72
2022/11/02 08:07:07;;;;;;;9.18;1.40;;;11.30;99.90;;;;;;5084946;28;20359;-71
2022/11/02 08:09:33;;;;;;;9.23;1.75;;;11.20;99.90;;;;;;5078794;28;20870;-72
2022/11/02 08:11:58;;;;;;;8.68;1.73;;;11.20;99.90;;;;;;5067441;28;20039;-71
2022/11/02 08:14:24;;;;;;;10.63;1.40;;;11.20;99.90;;;;;;5085957;28;20388;-72
2022/11/02 08:16:51;;;;;;;9.10;2.42;;;11.20;99.90;;;;;;5080434;28;20072;-72
2022/11/02 08:19:16;;;;;;;7.72;1.88;;;11.20;99.90;;;;;;5102799;27;20087;-72
2022/11/02 08:21:42;;;;;;;6.00;1.15;;;11.20;99.90;;;;;;5066019;28;20072;-71
2022/11/02 08:24:08;;;;;;;8.55;1.25;;;11.20;99.90;;;;;;5109063;27;20048;-72
2022/11/02 08:26:34;;;;;;;4.32;1.20;;;11.30;99.90;;;;;;5056889;28;20039;-71
2022/11/02 08:29:00;;;;;;;3.83;1.05;;;11.50;99.90;;;;;;5084475;28;20079;-72
2022/11/02 08:31:26;;;;;;;4.55;0.82;;;11.60;99.90;;;;;;5105776;27;20099;-72
2022/11/02 08:33:52;;;;;;;13.98;3.78;;;11.70;99.90;;;;;;5086085;28;20048;-71
2022/11/02 08:36:18;;;;;;;5.85;1.90;;;11.80;99.90;;;;;;5087875;28;20093;-71
2022/11/02 08:38:44;;;;;;;4.43;1.15;;;11.90;99.90;;;;;;5084530;28;20035;-72
2022/11/02 08:41:10;;;;;;;3.95;0.85;;;12.10;99.90;;;;;;5085256;28;20040;-71
2022/11/02 08:43:35;;;;;;;9.95;1.73;;;12.10;99.90;;;;;;5096618;28;20048;-72
2022/11/02 08:46:02;;;;;;;5.97;1.05;;;12.20;99.90;;;;;;5074507;28;20051;-71
2022/11/02 08:48:27;;;;;;;3.78;0.70;;;12.20;99.90;;;;;;5072289;28;20048;-71
2022/11/02 08:50:54;;;;;;;7.65;1.02;;;12.30;99.90;;;;;;5064480;28;20080;-70
2022/11/02 08:53:20;;;;;;;6.53;1.13;;;12.40;99.90;;;;;;5086618;28;20044;-71
2022/11/02 08:55:46;;;;;;;4.18;0.90;;;12.60;99.90;;;;;;5086611;28;20044;-71
2022/11/02 08:58:12;;;;;;;8.48;1.33;;;12.70;99.90;;;;;;5080432;28;20055;-72
2022/11/02 09:00:37;;;;;;;4.97;0.73;;;12.80;99.90;;;;;;5075098;28;20044;-72
2022/11/02 09:03:07;;;;;;;5.60;0.90;;;12.90;99.90;;;;;;5085944;28;20051;-71
2022/11/02 09:05:38;;;;;;;7.07;1.17;;;12.90;99.90;;;;;;5085914;28;20032;-72
2022/11/02 09:08:11;;;;;;;4.97;1.08;;;12.90;99.90;;;;;;5073860;28;20048;-72
2022/11/02 09:10:37;;;;;;;5.88;1.30;;;13.00;99.90;;;;;;5100832;28;20161;-71
2022/11/02 09:13:06;;;;;;;4.88;1.00;;;13.10;99.90;;;;;;5083840;28;20040;-72
2022/11/02 09:15:34;;;;;;;6.63;1.08;;;13.20;99.90;;;;;;5083407;28;20059;-72
2022/11/02 09:17:59;;;;;;;6.45;0.85;;;13.30;99.90;;;;;;5087247;28;20048;-72
2022/11/02 09:20:25;;;;;;;8.75;1.10;;;13.30;99.90;;;;;;5085421;28;20051;-72
2022/11/02 09:22:51;;;;;;;6.85;1.30;;;13.30;99.90;;;;;;5084424;28;20039;-72
2022/11/02 09:25:17;;;;;;;5.72;0.95;;;13.40;99.90;;;;;;5076834;28;20486;-71
2022/11/02 09:27:43;;;;;;;5.85;1.08;;;13.30;99.90;;;;;;5064980;28;20119;-71
2022/11/02 09:30:10;;;;;;;10.35;1.88;;;13.30;99.90;;;;;;5066707;28;20047;-71
2022/11/02 09:32:37;;;;;;;5.68;0.77;;;13.30;99.90;;;;;;5088254;28;20384;-71
2022/11/02 09:35:06;;;;;;;7.07;2.00;;;13.40;99.90;;;;;;5068351;28;20049;-71
2022/11/02 09:37:32;;;;;;;5.05;1.02;;;13.30;99.90;;;;;;5084604;28;20051;-73
2022/11/02 09:39:58;;;;;;;5.30;0.95;;;13.40;99.90;;;;;;5076178;28;20049;-71
2022/11/02 09:42:38;;;;;;;1.15;0.50;;;13.40;99.90;;;;;;5085058;28;20032;-71
2022/11/02 09:45:16;;;;;;;3.70;1.15;;;13.30;99.90;;;;;;5074133;28;20398;-71
2022/11/02 09:47:47;;;;;;;6.55;1.42;;;13.30;99.90;;;;;;5082026;28;20052;-71
2022/11/02 09:50:19;;;;;;;6.55;1.55;;;13.30;99.90;;;;;;5083141;28;20033;-71
2022/11/02 09:52:50;;;;;;;9.65;1.58;;;13.30;99.90;;;;;;5067661;28;20115;-71
2022/11/02 09:55:25;;;;;;;12.65;1.50;;;13.30;99.90;;;;;;5098687;27;20525;-71
2022/11/02 09:57:59;;;;;;;10.55;2.35;;;13.20;99.90;;;;;;5068161;28;20048;-71
2022/11/02 10:00:29;;;;;;;11.02;1.42;;;13.10;99.90;;;;;;5074746;28;20045;-71
2022/11/02 10:03:03;;;;;;;14.38;2.03;;;12.90;99.90;;;;;;5072942;28;20048;-93
2022/11/02 10:05:54;;;;;;;12.55;1.42;;;12.90;99.90;;;;;;5067443;28;20505;-70
2022/11/02 10:08:47;;;;;;;13.25;1.70;;;12.90;99.90;;;;;;5064562;28;20082;-71
2022/11/02 10:11:42;;;;;;;10.57;1.90;;;12.90;99.90;;;;;;5087237;28;20052;-71
2022/11/02 10:14:24;;;;;;;7.60;1.40;;;13.10;99.90;;;;;;5079492;28;20475;-71
2022/11/02 10:17:19;;;;;;;13.75;1.67;;;13.20;99.90;;;;;;5085424;28;20405;-71
2022/11/02 10:19:50;;;;;;;11.23;1.70;;;13.20;99.90;;;;;;5083694;28;20498;-71
2022/11/02 10:22:17;;;;;;;5.90;0.85;;;13.20;99.90;;;;;;5087113;28;20048;-71
2022/11/02 10:24:45;;;;;;;9.75;1.83;;;13.10;99.90;;;;;;5085024;28;20036;-71
2022/11/02 10:27:23;;;;;;;12.32;1.92;;;13.00;99.90;;;;;;5088229;28;20501;-71
2022/11/02 10:30:15;;;;;;;7.45;1.85;;;13.10;99.90;;;;;;5086679;28;20066;-71
2022/11/02 10:32:42;;;;;;;7.13;1.52;;;13.40;99.90;;;;;;5084914;28;20280;-71
2022/11/02 10:35:26;;;;;;;6.30;1.00;;;13.60;99.90;;;;;;5085924;28;20082;-91
2022/11/02 10:38:18;;;;;;;6.55;1.23;;;13.80;99.90;;;;;;5085813;28;20145;-71
2022/11/02 10:41:02;;;;;;;5.68;1.65;;;14.00;99.90;;;;;;5086321;28;20084;-79
2022/11/02 10:43:41;;;;;;;6.82;1.60;;;14.10;99.60;;;;;;5097298;28;20367;-72
2022/11/02 10:46:19;;;;;;;9.10;1.67;;;14.10;98.20;;;;;;5085410;28;20052;-82
2022/11/02 10:49:10;;;;;;;5.35;1.38;;;14.20;97.30;;;;;;5086033;28;20063;-71
2022/11/02 10:51:36;;;;;;;11.35;1.42;;;14.20;98.10;;;;;;5067533;28;20048;-71
2022/11/02 10:54:14;;;;;;;6.78;1.13;;;14.10;97.00;;;;;;5097286;28;20040;-85
2022/11/02 10:56:42;;;;;;;2.47;0.50;;;14.00;95.90;;;;;;5085915;28;20401;-71
2022/11/02 10:59:19;;;;;;;8.88;1.40;;;13.80;91.10;;;;;;5087389;28;20040;-70
2022/11/02 11:02:12;;;;;;;6.53;1.35;;;13.70;95.50;;;;;;5084116;28;20281;-72
2022/11/02 11:04:38;;;;;;;1.38;0.47;;;13.70;95.60;;;;;;5064902;28;20453;-71
2022/11/02 11:07:12;;;;;;;6.53;1.08;;;13.60;94.40;;;;;;5083537;28;20158;-71
2022/11/02 11:09:49;;;;;;;2.13;0.63;;;13.60;95.10;;;;;;5077162;28;20119;-71
2022/11/02 11:12:21;;;;;;;0.90;0.50;;;13.40;91.10;;;;;;5079206;28;20040;-71
2022/11/02 11:14:55;;;;;;;8.50;1.45;;;13.20;93.40;;;;;;5096258;28;20054;-71
2022/11/02 11:17:33;;;;;;;8.90;2.13;;;13.10;95.20;;;;;;5063014;28;20072;-72
2022/11/02 11:20:00;;;;;;;19.88;1.48;;;12.90;96.00;;;;;;5087197;28;20032;-71
2022/11/02 11:22:44;;;;;;;7.53;1.60;;;12.80;96.20;;;;;;5084472;28;20196;-71
2022/11/02 11:25:24;;;;;;;5.45;1.50;;;12.60;97.40;;;;;;5082829;28;20038;-72
2022/11/02 11:27:55;;;;;;;2.58;0.70;;;12.60;97.50;;;;;;5066857;28;20047;-72
2022/11/02 11:30:34;;;;;;;10.77;1.60;;;12.50;97.90;;;;;;5084361;28;20082;-86
2022/11/02 11:33:02;;;;;;;10.25;1.85;;;12.50;98.70;;;;;;5084788;28;20076;-72
2022/11/02 11:35:38;;;;;;;15.77;1.75;;;12.50;99.30;;;;;;5083553;28;20070;-71
2022/11/02 11:38:08;;;;;;;11.60;2.00;;;12.50;99.80;;;;;;5084435;28;20044;-86
2022/11/02 11:40:38;;;;;;;11.60;2.20;;;12.50;99.90;;;;;;5079123;28;20412;-71
2022/11/02 11:43:09;;;;;;;11.20;1.92;;;12.60;99.90;;;;;;5078462;28;20078;-71
2022/11/02 11:45:36;;;;;;;5.70;1.15;;;12.80;99.50;;;;;;5081545;28;20436;-71
2022/11/02 11:48:16;;;;;;;4.10;1.15;;;13.00;99.40;;;;;;5063157;28;20090;-71
2022/11/02 11:50:49;;;;;;;9.07;2.25;;;13.20;97.50;;;;;;5065296;28;20172;-87
2022/11/02 11:53:22;;;;;;;8.02;1.30;;;13.30;97.00;;;;;;5065607;28;20473;-71
2022/11/02 11:55:53;;;;;;;9.43;1.50;;;13.60;94.00;;;;;;5066258;28;20401;-72
2022/11/02 11:58:24;;;;;;;10.93;1.40;;;13.80;95.90;;;;;;5067382;28;20384;-80
2022/11/02 12:01:06;;;;;;;4.40;0.60;;;14.00;93.20;;;;;;5065071;28;20040;-87
2022/11/02 12:03:48;;;;;;;9.65;1.52;;;14.20;90.10;;;;;;5064164;28;20399;-71
2022/11/02 12:06:13;;;;;;;4.63;0.95;;;14.30;89.20;;;;;;5067279;28;20051;-71
2022/11/02 12:09:03;;;;;;;7.43;0.90;;;14.40;76.60;;;;;;5078351;28;20052;-71
2022/11/02 12:11:51;;;;;;;10.43;1.67;;;14.50;75.30;;;;;;5074569;28;20091;-72
2022/11/02 12:14:40;;;;;;;7.55;1.20;;;14.50;88.10;;;;;;5070014;28;20123;-72
2022/11/02 12:17:21;;;;;;;5.00;1.20;;;14.50;78.70;;;;;;5099211;28;20492;-72
2022/11/02 12:19:49;;;;;;;10.93;1.25;;;14.60;83.40;;;;;;5100718;28;20080;-71
2022/11/02 12:22:36;;;;;;;9.10;1.77;;;14.80;76.60;;;;;;5079632;28;20123;-71
2022/11/02 12:25:31;;;;;;;8.65;1.30;;;14.80;67.50;;;;;;5069998;28;20052;-72
2022/11/02 12:27:57;;;;;;;2.95;0.90;;;14.70;71.90;;;;;;5098087;28;20044;-71
2022/11/02 12:30:40;;;;;;;8.52;1.05;;;14.80;77.50;;;;;;5076583;28;20067;-72
2022/11/02 12:33:37;;;;;;;8.73;1.38;;;14.90;73.50;;;;;;5083535;28;20113;-71
2022/11/02 12:36:18;;;;;;;8.18;1.65;;;14.80;56.70;;;;;;5079886;28;20060;-72
2022/11/02 12:39:03;;;;;;;6.22;1.10;;;14.70;55.50;;;;;;5073485;28;20055;-71
2022/11/02 12:41:45;;;;;;;7.80;1.10;;;14.70;56.80;;;;;;5071405;28;20048;-71
2022/11/02 12:44:48;;;;;;;10.32;1.55;;;14.70;59.50;;;;;;5081766;28;20072;-72
2022/11/02 12:47:20;;;;;;;7.60;1.17;;;14.70;51.60;;;;;;5083821;28;20036;-72
2022/11/02 12:49:48;;;;;;;3.38;0.63;;;14.70;49.00;;;;;;5083297;28;20123;-74
2022/11/02 12:52:32;;;;;;;7.68;1.15;;;14.60;37.00;;;;;;5081073;28;20047;-72
2022/11/02 12:55:02;;;;;;;8.85;1.40;;;14.40;47.30;;;;;;5078785;28;20043;-71
2022/11/02 12:57:32;;;;;;;;;;;14.40;55.20;;;;;;5084753;28;20145;-71
2022/11/02 13:00:03;;;;;;;4.18;0.75;;;14.40;65.60;;;;;;5084448;28;19950;-72
2022/11/02 13:02:50;;;;;;;5.18;0.60;;;14.40;56.90;;;;;;5080950;28;20059;-73
2022/11/02 13:05:23;;;;;;;4.60;1.00;;;14.40;57.90;;;;;;5100301;28;20044;-72
2022/11/02 13:08:07;;;;;;;8.85;0.98;;;14.40;55.60;;;;;;5084730;28;20072;-71
2022/11/02 13:10:51;;;;;;;6.68;1.17;;;14.50;58.30;;;;;;5081063;28;20532;-72
2022/11/02 13:13:23;;;;;;;8.95;1.30;;;14.60;62.90;;;;;;5084221;28;20494;-73
2022/11/02 13:15:51;;;;;;;7.20;1.13;;;14.70;63.90;;;;;;5079544;28;20075;-91
2022/11/02 13:18:29;;;;;;;7.05;1.20;;;14.80;60.00;;;;;;5083445;28;20043;-73
2022/11/02 13:20:58;;;;;;;6.78;0.95;;;14.80;51.60;;;;;;5090927;27;20445;-71